sensor_id;sensor_type;location;lat;lon;timestamp;P1;durP1;ratioP1;P2;durP2;ratioP2
16832;SDS011;8533;48.426;10.868;2023-02-28T00:00:45;7.07;;;2.53;;
16832;SDS011;8533;48.426;10.868;2023-02-28T00:03:13;3.00;;;2.37;;
16832;SDS011;8533;48.426;10.868;2023-02-28T00:05:40;4.87;;;2.83;;
16832;SDS011;8533;48.426;10.868;2023-02-28T00:08:08;4.07;;;2.63;;
16832;SDS011;8533;48.426;10.868;2023-02-28T00:10:36;2.80;;;2.07;;
16832;SDS011;8533;48.426;10.868;2023-02-28T00:13:04;3.97;;;2.40;;
16832;SDS011;8533;48.426;10.868;2023-02-28T00:15:32;4.27;;;2.17;;
16832;SDS011;8533;48.426;10.868;2023-02-28T00:18:05;4.97;;;2.60;;
16832;SDS011;8533;48.426;10.868;2023-02-28T00:20:29;5.30;;;2.63;;
16832;SDS011;8533;48.426;10.868;2023-02-28T00:22:57;4.17;;;2.70;;
16832;SDS011;8533;48.426;10.868;2023-02-28T00:25:24;3.10;;;2.43;;
16832;SDS011;8533;48.426;10.868;2023-02-28T00:27:52;2.83;;;2.60;;
16832;SDS011;8533;48.426;10.868;2023-02-28T00:30:21;2.83;;;2.30;;
16832;SDS011;8533;48.426;10.868;2023-02-28T00:32:50;3.93;;;2.50;;
16832;SDS011;8533;48.426;10.868;2023-02-28T00:35:17;4.73;;;2.70;;
16832;SDS011;8533;48.426;10.868;2023-02-28T00:37:45;4.77;;;3.07;;
16832;SDS011;8533;48.426;10.868;2023-02-28T00:40:15;5.33;;;2.60;;
16832;SDS011;8533;48.426;10.868;2023-02-28T00:42:42;5.10;;;2.93;;
16832;SDS011;8533;48.426;10.868;2023-02-28T00:45:10;3.67;;;2.50;;
16832;SDS011;8533;48.426;10.868;2023-02-28T00:47:37;3.97;;;2.07;;
16832;SDS011;8533;48.426;10.868;2023-02-28T00:50:05;2.37;;;1.80;;
16832;SDS011;8533;48.426;10.868;2023-02-28T00:52:33;2.53;;;2.27;;
16832;SDS011;8533;48.426;10.868;2023-02-28T00:55:01;4.53;;;2.77;;
16832;SDS011;8533;48.426;10.868;2023-02-28T00:57:28;6.97;;;2.60;;
16832;SDS011;8533;48.426;10.868;2023-02-28T00:59:56;3.77;;;2.60;;
16832;SDS011;8533;48.426;10.868;2023-02-28T01:02:23;3.07;;;2.70;;
16832;SDS011;8533;48.426;10.868;2023-02-28T01:04:51;3.67;;;2.70;;
16832;SDS011;8533;48.426;10.868;2023-02-28T01:07:19;6.70;;;3.47;;
16832;SDS011;8533;48.426;10.868;2023-02-28T01:09:46;2.73;;;2.33;;
16832;SDS011;8533;48.426;10.868;2023-02-28T01:12:14;8.87;;;2.80;;
16832;SDS011;8533;48.426;10.868;2023-02-28T01:14:41;3.90;;;2.60;;
16832;SDS011;8533;48.426;10.868;2023-02-28T01:17:09;3.37;;;2.70;;
16832;SDS011;8533;48.426;10.868;2023-02-28T01:19:36;3.67;;;2.57;;
16832;SDS011;8533;48.426;10.868;2023-02-28T01:22:05;3.53;;;2.63;;
16832;SDS011;8533;48.426;10.868;2023-02-28T01:24:33;3.47;;;3.00;;
16832;SDS011;8533;48.426;10.868;2023-02-28T01:27:00;2.87;;;2.07;;
16832;SDS011;8533;48.426;10.868;2023-02-28T01:29:27;5.27;;;2.90;;
16832;SDS011;8533;48.426;10.868;2023-02-28T01:31:55;3.77;;;2.80;;
16832;SDS011;8533;48.426;10.868;2023-02-28T01:34:24;4.80;;;2.40;;
16832;SDS011;8533;48.426;10.868;2023-02-28T01:36:51;3.40;;;2.23;;
16832;SDS011;8533;48.426;10.868;2023-02-28T01:39:19;4.70;;;2.90;;
16832;SDS011;8533;48.426;10.868;2023-02-28T01:41:47;3.53;;;2.60;;
16832;SDS011;8533;48.426;10.868;2023-02-28T01:47:17;4.90;;;2.80;;
16832;SDS011;8533;48.426;10.868;2023-02-28T01:49:45;3.60;;;2.70;;
16832;SDS011;8533;48.426;10.868;2023-02-28T01:52:12;3.23;;;2.23;;
16832;SDS011;8533;48.426;10.868;2023-02-28T01:54:45;4.50;;;2.77;;
16832;SDS011;8533;48.426;10.868;2023-02-28T01:57:15;4.00;;;2.40;;
16832;SDS011;8533;48.426;10.868;2023-02-28T01:59:48;3.57;;;2.50;;
16832;SDS011;8533;48.426;10.868;2023-02-28T02:02:27;4.30;;;2.50;;
16832;SDS011;8533;48.426;10.868;2023-02-28T02:04:58;5.07;;;3.20;;
16832;SDS011;8533;48.426;10.868;2023-02-28T02:10:05;2.37;;;1.90;;
16832;SDS011;8533;48.426;10.868;2023-02-28T02:18:33;5.27;;;2.80;;
16832;SDS011;8533;48.426;10.868;2023-02-28T02:35:07;3.77;;;2.60;;
16832;SDS011;8533;48.426;10.868;2023-02-28T02:42:52;3.93;;;2.40;;
16832;SDS011;8533;48.426;10.868;2023-02-28T02:50:48;5.63;;;3.10;;
16832;SDS011;8533;48.426;10.868;2023-02-28T02:53:13;4.37;;;3.30;;
16832;SDS011;8533;48.426;10.868;2023-02-28T02:55:43;7.63;;;3.47;;
16832;SDS011;8533;48.426;10.868;2023-02-28T02:58:16;3.33;;;2.87;;
16832;SDS011;8533;48.426;10.868;2023-02-28T03:00:46;3.43;;;2.67;;
16832;SDS011;8533;48.426;10.868;2023-02-28T03:03:16;4.90;;;3.10;;
16832;SDS011;8533;48.426;10.868;2023-02-28T03:05:48;4.87;;;3.20;;
16832;SDS011;8533;48.426;10.868;2023-02-28T03:08:17;7.63;;;3.30;;
16832;SDS011;8533;48.426;10.868;2023-02-28T03:10:45;5.53;;;3.50;;
16832;SDS011;8533;48.426;10.868;2023-02-28T03:24:02;5.30;;;3.10;;
16832;SDS011;8533;48.426;10.868;2023-02-28T03:29:02;6.47;;;3.57;;
16832;SDS011;8533;48.426;10.868;2023-02-28T03:31:38;4.87;;;3.33;;
16832;SDS011;8533;48.426;10.868;2023-02-28T03:34:16;6.40;;;3.50;;
16832;SDS011;8533;48.426;10.868;2023-02-28T03:39:34;6.37;;;3.20;;
16832;SDS011;8533;48.426;10.868;2023-02-28T03:42:02;6.50;;;3.50;;
16832;SDS011;8533;48.426;10.868;2023-02-28T03:49:46;3.77;;;3.00;;
16832;SDS011;8533;48.426;10.868;2023-02-28T03:54:48;7.57;;;3.37;;
16832;SDS011;8533;48.426;10.868;2023-02-28T04:00:12;5.50;;;3.43;;
16832;SDS011;8533;48.426;10.868;2023-02-28T04:05:05;9.33;;;3.97;;
16832;SDS011;8533;48.426;10.868;2023-02-28T04:07:33;6.80;;;4.50;;
16832;SDS011;8533;48.426;10.868;2023-02-28T04:10:01;4.43;;;3.10;;
16832;SDS011;8533;48.426;10.868;2023-02-28T04:12:29;6.93;;;3.20;;
16832;SDS011;8533;48.426;10.868;2023-02-28T04:14:56;5.37;;;3.97;;
16832;SDS011;8533;48.426;10.868;2023-02-28T04:17:24;7.47;;;3.63;;
16832;SDS011;8533;48.426;10.868;2023-02-28T04:19:51;4.37;;;3.17;;
16832;SDS011;8533;48.426;10.868;2023-02-28T04:22:20;6.17;;;3.20;;
16832;SDS011;8533;48.426;10.868;2023-02-28T04:24:47;5.53;;;3.20;;
16832;SDS011;8533;48.426;10.868;2023-02-28T04:27:15;9.23;;;3.80;;
16832;SDS011;8533;48.426;10.868;2023-02-28T04:29:42;5.23;;;3.33;;
16832;SDS011;8533;48.426;10.868;2023-02-28T04:32:10;3.07;;;2.50;;
16832;SDS011;8533;48.426;10.868;2023-02-28T04:34:37;7.23;;;3.57;;
16832;SDS011;8533;48.426;10.868;2023-02-28T04:37:05;6.53;;;3.80;;
16832;SDS011;8533;48.426;10.868;2023-02-28T04:39:34;7.57;;;4.60;;
16832;SDS011;8533;48.426;10.868;2023-02-28T04:42:03;5.33;;;3.43;;
16832;SDS011;8533;48.426;10.868;2023-02-28T04:44:30;7.17;;;4.77;;
16832;SDS011;8533;48.426;10.868;2023-02-28T04:46:58;5.83;;;3.97;;
16832;SDS011;8533;48.426;10.868;2023-02-28T04:49:25;6.73;;;3.90;;
16832;SDS011;8533;48.426;10.868;2023-02-28T04:51:53;5.60;;;3.37;;
16832;SDS011;8533;48.426;10.868;2023-02-28T04:54:21;4.70;;;3.47;;
16832;SDS011;8533;48.426;10.868;2023-02-28T04:56:48;9.57;;;4.77;;
16832;SDS011;8533;48.426;10.868;2023-02-28T04:59:15;3.87;;;2.20;;
16832;SDS011;8533;48.426;10.868;2023-02-28T05:01:45;6.10;;;4.33;;
16832;SDS011;8533;48.426;10.868;2023-02-28T05:04:13;5.40;;;3.63;;
16832;SDS011;8533;48.426;10.868;2023-02-28T05:06:41;6.63;;;4.00;;
16832;SDS011;8533;48.426;10.868;2023-02-28T05:09:08;8.00;;;4.27;;
16832;SDS011;8533;48.426;10.868;2023-02-28T05:11:39;5.47;;;3.70;;
16832;SDS011;8533;48.426;10.868;2023-02-28T05:14:11;5.13;;;3.47;;
16832;SDS011;8533;48.426;10.868;2023-02-28T05:16:40;6.90;;;3.77;;
16832;SDS011;8533;48.426;10.868;2023-02-28T05:19:07;6.47;;;3.63;;
16832;SDS011;8533;48.426;10.868;2023-02-28T05:21:41;7.53;;;4.10;;
16832;SDS011;8533;48.426;10.868;2023-02-28T05:24:20;8.70;;;3.90;;
16832;SDS011;8533;48.426;10.868;2023-02-28T05:26:52;6.60;;;3.60;;
16832;SDS011;8533;48.426;10.868;2023-02-28T05:29:21;4.63;;;2.87;;
16832;SDS011;8533;48.426;10.868;2023-02-28T05:31:48;4.80;;;3.50;;
16832;SDS011;8533;48.426;10.868;2023-02-28T05:34:16;8.60;;;3.90;;
16832;SDS011;8533;48.426;10.868;2023-02-28T05:36:43;8.93;;;3.87;;
16832;SDS011;8533;48.426;10.868;2023-02-28T05:39:11;12.47;;;4.47;;
16832;SDS011;8533;48.426;10.868;2023-02-28T05:41:42;7.57;;;4.57;;
16832;SDS011;8533;48.426;10.868;2023-02-28T05:44:10;8.50;;;4.20;;
16832;SDS011;8533;48.426;10.868;2023-02-28T05:46:37;8.60;;;4.77;;
16832;SDS011;8533;48.426;10.868;2023-02-28T05:49:05;8.97;;;4.70;;
16832;SDS011;8533;48.426;10.868;2023-02-28T05:51:32;5.73;;;3.90;;
16832;SDS011;8533;48.426;10.868;2023-02-28T05:54:01;5.27;;;3.63;;
16832;SDS011;8533;48.426;10.868;2023-02-28T05:56:29;8.63;;;4.20;;
16832;SDS011;8533;48.426;10.868;2023-02-28T05:58:57;8.30;;;4.67;;
16832;SDS011;8533;48.426;10.868;2023-02-28T06:01:31;5.60;;;3.73;;
16832;SDS011;8533;48.426;10.868;2023-02-28T06:06:27;9.47;;;4.50;;
16832;SDS011;8533;48.426;10.868;2023-02-28T06:08:57;9.73;;;4.27;;
16832;SDS011;8533;48.426;10.868;2023-02-28T06:11:24;4.10;;;3.17;;
16832;SDS011;8533;48.426;10.868;2023-02-28T06:13:55;8.30;;;3.53;;
16832;SDS011;8533;48.426;10.868;2023-02-28T06:16:25;8.20;;;4.37;;
16832;SDS011;8533;48.426;10.868;2023-02-28T06:18:53;7.33;;;4.23;;
16832;SDS011;8533;48.426;10.868;2023-02-28T06:21:21;8.97;;;5.07;;
16832;SDS011;8533;48.426;10.868;2023-02-28T06:23:49;8.03;;;4.40;;
16832;SDS011;8533;48.426;10.868;2023-02-28T06:26:16;8.57;;;4.30;;
16832;SDS011;8533;48.426;10.868;2023-02-28T06:28:44;7.10;;;4.13;;
16832;SDS011;8533;48.426;10.868;2023-02-28T06:31:12;4.77;;;3.60;;
16832;SDS011;8533;48.426;10.868;2023-02-28T06:33:42;8.90;;;5.23;;
16832;SDS011;8533;48.426;10.868;2023-02-28T06:36:12;6.40;;;3.90;;
16832;SDS011;8533;48.426;10.868;2023-02-28T06:38:40;6.83;;;4.07;;
16832;SDS011;8533;48.426;10.868;2023-02-28T06:41:08;8.57;;;5.30;;
16832;SDS011;8533;48.426;10.868;2023-02-28T06:43:37;6.80;;;4.53;;
16832;SDS011;8533;48.426;10.868;2023-02-28T06:46:07;8.27;;;4.37;;
16832;SDS011;8533;48.426;10.868;2023-02-28T06:48:36;8.90;;;5.20;;
16832;SDS011;8533;48.426;10.868;2023-02-28T06:51:08;10.03;;;5.13;;
16832;SDS011;8533;48.426;10.868;2023-02-28T06:56:09;7.37;;;4.73;;
16832;SDS011;8533;48.426;10.868;2023-02-28T06:58:38;8.07;;;4.53;;
16832;SDS011;8533;48.426;10.868;2023-02-28T07:01:06;7.00;;;4.50;;
16832;SDS011;8533;48.426;10.868;2023-02-28T07:03:34;7.57;;;4.00;;
16832;SDS011;8533;48.426;10.868;2023-02-28T07:06:04;8.90;;;5.33;;
16832;SDS011;8533;48.426;10.868;2023-02-28T07:08:32;8.73;;;5.27;;
16832;SDS011;8533;48.426;10.868;2023-02-28T07:11:01;8.03;;;4.63;;
16832;SDS011;8533;48.426;10.868;2023-02-28T07:13:29;10.77;;;4.53;;
16832;SDS011;8533;48.426;10.868;2023-02-28T07:15:58;7.47;;;3.77;;
16832;SDS011;8533;48.426;10.868;2023-02-28T07:18:27;6.83;;;4.43;;
16832;SDS011;8533;48.426;10.868;2023-02-28T07:20:55;6.70;;;3.87;;
16832;SDS011;8533;48.426;10.868;2023-02-28T07:23:24;8.07;;;4.80;;
16832;SDS011;8533;48.426;10.868;2023-02-28T07:25:52;7.83;;;3.83;;
16832;SDS011;8533;48.426;10.868;2023-02-28T07:28:20;9.03;;;5.03;;
16832;SDS011;8533;48.426;10.868;2023-02-28T07:30:47;5.80;;;3.77;;
16832;SDS011;8533;48.426;10.868;2023-02-28T07:33:15;7.60;;;4.80;;
16832;SDS011;8533;48.426;10.868;2023-02-28T07:35:42;8.60;;;4.83;;
16832;SDS011;8533;48.426;10.868;2023-02-28T07:38:10;8.57;;;4.60;;
16832;SDS011;8533;48.426;10.868;2023-02-28T07:40:39;11.77;;;5.47;;
16832;SDS011;8533;48.426;10.868;2023-02-28T07:43:06;10.97;;;5.17;;
16832;SDS011;8533;48.426;10.868;2023-02-28T07:45:34;10.13;;;4.50;;
16832;SDS011;8533;48.426;10.868;2023-02-28T07:48:01;6.93;;;4.60;;
16832;SDS011;8533;48.426;10.868;2023-02-28T07:50:29;7.33;;;4.40;;
16832;SDS011;8533;48.426;10.868;2023-02-28T07:52:57;11.17;;;5.27;;
16832;SDS011;8533;48.426;10.868;2023-02-28T07:55:25;11.23;;;4.23;;
16832;SDS011;8533;48.426;10.868;2023-02-28T07:57:56;7.13;;;4.10;;
16832;SDS011;8533;48.426;10.868;2023-02-28T08:00:24;9.33;;;5.13;;
16832;SDS011;8533;48.426;10.868;2023-02-28T08:02:51;10.93;;;5.77;;
16832;SDS011;8533;48.426;10.868;2023-02-28T08:05:18;9.53;;;4.87;;
16832;SDS011;8533;48.426;10.868;2023-02-28T08:07:46;9.53;;;4.50;;
16832;SDS011;8533;48.426;10.868;2023-02-28T08:10:16;8.63;;;5.20;;
16832;SDS011;8533;48.426;10.868;2023-02-28T08:12:43;9.90;;;5.40;;
16832;SDS011;8533;48.426;10.868;2023-02-28T08:15:11;8.70;;;5.30;;
16832;SDS011;8533;48.426;10.868;2023-02-28T08:17:38;9.50;;;4.87;;
16832;SDS011;8533;48.426;10.868;2023-02-28T08:20:06;9.30;;;5.20;;
16832;SDS011;8533;48.426;10.868;2023-02-28T08:22:35;9.03;;;4.47;;
16832;SDS011;8533;48.426;10.868;2023-02-28T08:25:03;11.30;;;5.80;;
16832;SDS011;8533;48.426;10.868;2023-02-28T08:27:32;8.43;;;4.23;;
16832;SDS011;8533;48.426;10.868;2023-02-28T08:30:00;9.23;;;4.80;;
16832;SDS011;8533;48.426;10.868;2023-02-28T08:32:28;6.27;;;4.50;;
16832;SDS011;8533;48.426;10.868;2023-02-28T08:34:55;11.30;;;6.07;;
16832;SDS011;8533;48.426;10.868;2023-02-28T08:37:23;12.63;;;6.00;;
16832;SDS011;8533;48.426;10.868;2023-02-28T08:39:51;8.40;;;4.70;;
16832;SDS011;8533;48.426;10.868;2023-02-28T08:42:18;11.17;;;5.43;;
16832;SDS011;8533;48.426;10.868;2023-02-28T08:44:45;12.47;;;5.87;;
16832;SDS011;8533;48.426;10.868;2023-02-28T08:47:13;11.17;;;5.67;;
16832;SDS011;8533;48.426;10.868;2023-02-28T08:49:40;9.00;;;5.37;;
16832;SDS011;8533;48.426;10.868;2023-02-28T08:52:08;9.90;;;5.97;;
16832;SDS011;8533;48.426;10.868;2023-02-28T08:54:35;9.87;;;6.13;;
16832;SDS011;8533;48.426;10.868;2023-02-28T08:57:03;12.60;;;6.13;;
16832;SDS011;8533;48.426;10.868;2023-02-28T08:59:30;9.83;;;6.10;;
16832;SDS011;8533;48.426;10.868;2023-02-28T09:01:59;11.60;;;6.40;;
16832;SDS011;8533;48.426;10.868;2023-02-28T09:04:27;10.43;;;5.83;;
16832;SDS011;8533;48.426;10.868;2023-02-28T09:06:56;9.77;;;5.23;;
16832;SDS011;8533;48.426;10.868;2023-02-28T09:09:23;11.50;;;6.53;;
16832;SDS011;8533;48.426;10.868;2023-02-28T09:11:51;7.17;;;4.13;;
16832;SDS011;8533;48.426;10.868;2023-02-28T09:14:25;9.23;;;4.87;;
16832;SDS011;8533;48.426;10.868;2023-02-28T09:16:48;11.10;;;5.13;;
16832;SDS011;8533;48.426;10.868;2023-02-28T09:19:16;11.63;;;6.27;;
16832;SDS011;8533;48.426;10.868;2023-02-28T09:21:43;8.00;;;4.70;;
16832;SDS011;8533;48.426;10.868;2023-02-28T09:24:11;9.27;;;5.43;;
16832;SDS011;8533;48.426;10.868;2023-02-28T09:26:41;9.67;;;5.93;;
16832;SDS011;8533;48.426;10.868;2023-02-28T09:29:08;11.67;;;6.50;;
16832;SDS011;8533;48.426;10.868;2023-02-28T09:31:36;13.47;;;6.40;;
16832;SDS011;8533;48.426;10.868;2023-02-28T09:34:04;12.17;;;6.33;;
16832;SDS011;8533;48.426;10.868;2023-02-28T09:36:33;9.57;;;5.57;;
16832;SDS011;8533;48.426;10.868;2023-02-28T09:39:02;8.90;;;5.33;;
16832;SDS011;8533;48.426;10.868;2023-02-28T09:41:32;12.30;;;5.60;;
16832;SDS011;8533;48.426;10.868;2023-02-28T09:44:01;13.37;;;5.90;;
16832;SDS011;8533;48.426;10.868;2023-02-28T09:46:32;11.27;;;6.03;;
16832;SDS011;8533;48.426;10.868;2023-02-28T09:49:04;8.63;;;5.60;;
16832;SDS011;8533;48.426;10.868;2023-02-28T09:51:34;9.03;;;5.70;;
16832;SDS011;8533;48.426;10.868;2023-02-28T09:54:19;21.35;;;6.90;;
16832;SDS011;8533;48.426;10.868;2023-02-28T10:05:08;8.87;;;5.10;;
16832;SDS011;8533;48.426;10.868;2023-02-28T10:07:42;9.83;;;5.43;;
16832;SDS011;8533;48.426;10.868;2023-02-28T10:15:40;11.20;;;6.13;;
16832;SDS011;8533;48.426;10.868;2023-02-28T10:18:11;11.20;;;6.67;;
16832;SDS011;8533;48.426;10.868;2023-02-28T10:20:41;10.47;;;5.17;;
16832;SDS011;8533;48.426;10.868;2023-02-28T10:23:12;10.97;;;6.37;;
16832;SDS011;8533;48.426;10.868;2023-02-28T10:25:40;9.63;;;6.37;;
16832;SDS011;8533;48.426;10.868;2023-02-28T10:28:12;8.23;;;5.23;;
16832;SDS011;8533;48.426;10.868;2023-02-28T10:30:44;11.77;;;6.40;;
16832;SDS011;8533;48.426;10.868;2023-02-28T10:33:21;13.97;;;6.53;;
16832;SDS011;8533;48.426;10.868;2023-02-28T10:35:59;12.60;;;7.30;;
16832;SDS011;8533;48.426;10.868;2023-02-28T10:38:34;11.60;;;6.47;;
16832;SDS011;8533;48.426;10.868;2023-02-28T10:43:35;12.57;;;6.47;;
16832;SDS011;8533;48.426;10.868;2023-02-28T10:46:11;11.17;;;6.40;;
16832;SDS011;8533;48.426;10.868;2023-02-28T10:51:10;9.47;;;5.23;;
16832;SDS011;8533;48.426;10.868;2023-02-28T10:53:45;10.47;;;5.87;;
16832;SDS011;8533;48.426;10.868;2023-02-28T10:58:47;11.53;;;6.43;;
16832;SDS011;8533;48.426;10.868;2023-02-28T11:04:00;10.67;;;5.70;;
16832;SDS011;8533;48.426;10.868;2023-02-28T11:06:32;8.87;;;5.63;;
16832;SDS011;8533;48.426;10.868;2023-02-28T11:09:12;8.87;;;5.83;;
16832;SDS011;8533;48.426;10.868;2023-02-28T11:11:41;8.70;;;5.60;;
16832;SDS011;8533;48.426;10.868;2023-02-28T11:16:42;11.13;;;5.23;;
16832;SDS011;8533;48.426;10.868;2023-02-28T11:19:16;7.40;;;4.33;;
16832;SDS011;8533;48.426;10.868;2023-02-28T11:24:27;12.03;;;6.40;;
16832;SDS011;8533;48.426;10.868;2023-02-28T11:29:25;10.30;;;5.60;;
16832;SDS011;8533;48.426;10.868;2023-02-28T11:32:16;13.87;;;6.13;;
16832;SDS011;8533;48.426;10.868;2023-02-28T11:37:01;14.27;;;7.23;;
16832;SDS011;8533;48.426;10.868;2023-02-28T11:39:31;12.67;;;6.30;;
16832;SDS011;8533;48.426;10.868;2023-02-28T11:44:48;9.80;;;5.50;;
16832;SDS011;8533;48.426;10.868;2023-02-28T11:52:44;9.70;;;5.33;;
16832;SDS011;8533;48.426;10.868;2023-02-28T11:55:16;9.80;;;6.03;;
16832;SDS011;8533;48.426;10.868;2023-02-28T12:01:03;12.03;;;5.77;;
16832;SDS011;8533;48.426;10.868;2023-02-28T12:03:38;12.03;;;5.80;;
16832;SDS011;8533;48.426;10.868;2023-02-28T12:06:34;13.77;;;6.87;;
16832;SDS011;8533;48.426;10.868;2023-02-28T12:09:04;7.70;;;5.30;;
16832;SDS011;8533;48.426;10.868;2023-02-28T12:11:37;11.00;;;6.20;;
16832;SDS011;8533;48.426;10.868;2023-02-28T12:17:29;9.80;;;6.20;;
16832;SDS011;8533;48.426;10.868;2023-02-28T12:22:57;11.77;;;6.63;;
16832;SDS011;8533;48.426;10.868;2023-02-28T12:28:37;10.93;;;6.47;;
16832;SDS011;8533;48.426;10.868;2023-02-28T12:31:14;11.80;;;6.23;;
16832;SDS011;8533;48.426;10.868;2023-02-28T12:34:00;10.07;;;5.37;;
16832;SDS011;8533;48.426;10.868;2023-02-28T12:36:29;10.43;;;6.00;;
16832;SDS011;8533;48.426;10.868;2023-02-28T12:38:59;13.07;;;5.60;;
16832;SDS011;8533;48.426;10.868;2023-02-28T12:41:31;12.10;;;7.50;;
16832;SDS011;8533;48.426;10.868;2023-02-28T12:44:01;11.27;;;7.00;;
16832;SDS011;8533;48.426;10.868;2023-02-28T12:46:38;9.40;;;5.73;;
16832;SDS011;8533;48.426;10.868;2023-02-28T12:51:39;10.73;;;6.63;;
16832;SDS011;8533;48.426;10.868;2023-02-28T12:59:22;11.00;;;6.43;;
16832;SDS011;8533;48.426;10.868;2023-02-28T13:09:55;11.73;;;7.07;;
16832;SDS011;8533;48.426;10.868;2023-02-28T13:12:24;11.73;;;6.57;;
16832;SDS011;8533;48.426;10.868;2023-02-28T13:15:01;8.60;;;6.27;;
16832;SDS011;8533;48.426;10.868;2023-02-28T13:17:39;8.10;;;5.50;;
16832;SDS011;8533;48.426;10.868;2023-02-28T13:20:15;12.43;;;6.93;;
16832;SDS011;8533;48.426;10.868;2023-02-28T13:28:03;8.53;;;5.03;;
16832;SDS011;8533;48.426;10.868;2023-02-28T13:38:38;10.30;;;5.57;;
16832;SDS011;8533;48.426;10.868;2023-02-28T13:44:14;10.93;;;6.17;;
16832;SDS011;8533;48.426;10.868;2023-02-28T13:51:55;11.10;;;6.20;;
16832;SDS011;8533;48.426;10.868;2023-02-28T13:54:58;8.10;;;5.67;;
16832;SDS011;8533;48.426;10.868;2023-02-28T14:03:21;10.37;;;6.03;;
16832;SDS011;8533;48.426;10.868;2023-02-28T14:08:51;10.40;;;5.43;;
16832;SDS011;8533;48.426;10.868;2023-02-28T14:11:25;8.50;;;5.50;;
16832;SDS011;8533;48.426;10.868;2023-02-28T14:13:54;10.27;;;5.40;;
16832;SDS011;8533;48.426;10.868;2023-02-28T14:16:27;13.20;;;5.83;;
16832;SDS011;8533;48.426;10.868;2023-02-28T14:19:15;8.60;;;5.60;;
16832;SDS011;8533;48.426;10.868;2023-02-28T14:21:56;10.90;;;6.00;;
16832;SDS011;8533;48.426;10.868;2023-02-28T14:32:51;9.90;;;5.50;;
16832;SDS011;8533;48.426;10.868;2023-02-28T14:40:42;12.47;;;5.53;;
16832;SDS011;8533;48.426;10.868;2023-02-28T14:43:32;8.73;;;5.17;;
16832;SDS011;8533;48.426;10.868;2023-02-28T14:45:48;7.40;;;5.43;;
16832;SDS011;8533;48.426;10.868;2023-02-28T14:48:15;9.33;;;5.83;;
16832;SDS011;8533;48.426;10.868;2023-02-28T14:50:54;12.37;;;5.67;;
16832;SDS011;8533;48.426;10.868;2023-02-28T14:55:48;8.77;;;5.43;;
16832;SDS011;8533;48.426;10.868;2023-02-28T14:58:25;7.87;;;4.40;;
16832;SDS011;8533;48.426;10.868;2023-02-28T15:08:32;9.83;;;5.77;;
16832;SDS011;8533;48.426;10.868;2023-02-28T15:11:02;10.13;;;5.80;;
16832;SDS011;8533;48.426;10.868;2023-02-28T15:16:19;10.73;;;6.20;;
16832;SDS011;8533;48.426;10.868;2023-02-28T15:19:44;9.57;;;5.73;;
16832;SDS011;8533;48.426;10.868;2023-02-28T15:21:33;9.47;;;5.87;;
16832;SDS011;8533;48.426;10.868;2023-02-28T15:24:11;10.77;;;5.90;;
16832;SDS011;8533;48.426;10.868;2023-02-28T15:29:17;11.87;;;5.67;;
16832;SDS011;8533;48.426;10.868;2023-02-28T15:31:53;12.60;;;6.63;;
16832;SDS011;8533;48.426;10.868;2023-02-28T15:37:02;12.33;;;6.63;;
16832;SDS011;8533;48.426;10.868;2023-02-28T15:39:40;11.80;;;5.97;;
16832;SDS011;8533;48.426;10.868;2023-02-28T15:42:12;9.43;;;5.80;;
16832;SDS011;8533;48.426;10.868;2023-02-28T15:47:21;9.23;;;6.03;;
16832;SDS011;8533;48.426;10.868;2023-02-28T15:52:24;9.60;;;6.23;;
16832;SDS011;8533;48.426;10.868;2023-02-28T15:54:54;13.10;;;6.33;;
16832;SDS011;8533;48.426;10.868;2023-02-28T15:57:22;9.63;;;5.60;;
16832;SDS011;8533;48.426;10.868;2023-02-28T16:00:00;10.07;;;6.00;;
16832;SDS011;8533;48.426;10.868;2023-02-28T16:02:34;9.67;;;5.93;;
16832;SDS011;8533;48.426;10.868;2023-02-28T16:10:09;11.13;;;6.33;;
16832;SDS011;8533;48.426;10.868;2023-02-28T16:12:40;10.63;;;6.40;;
16832;SDS011;8533;48.426;10.868;2023-02-28T16:15:15;14.07;;;6.50;;
16832;SDS011;8533;48.426;10.868;2023-02-28T16:20:16;11.73;;;6.73;;
16832;SDS011;8533;48.426;10.868;2023-02-28T16:25:17;13.23;;;6.67;;
16832;SDS011;8533;48.426;10.868;2023-02-28T16:27:47;13.83;;;6.60;;
16832;SDS011;8533;48.426;10.868;2023-02-28T16:30:20;10.97;;;6.23;;
16832;SDS011;8533;48.426;10.868;2023-02-28T16:32:50;13.73;;;6.53;;
16832;SDS011;8533;48.426;10.868;2023-02-28T16:35:19;10.77;;;6.33;;
16832;SDS011;8533;48.426;10.868;2023-02-28T16:37:46;13.73;;;7.10;;
16832;SDS011;8533;48.426;10.868;2023-02-28T16:40:15;10.63;;;6.17;;
16832;SDS011;8533;48.426;10.868;2023-02-28T16:42:47;13.27;;;6.77;;
16832;SDS011;8533;48.426;10.868;2023-02-28T16:45:24;12.60;;;6.40;;
16832;SDS011;8533;48.426;10.868;2023-02-28T16:47:52;12.43;;;6.43;;
16832;SDS011;8533;48.426;10.868;2023-02-28T16:50:21;12.97;;;6.30;;
16832;SDS011;8533;48.426;10.868;2023-02-28T16:52:53;13.20;;;6.33;;
16832;SDS011;8533;48.426;10.868;2023-02-28T16:55:22;11.57;;;7.07;;
16832;SDS011;8533;48.426;10.868;2023-02-28T16:57:54;10.97;;;6.60;;
16832;SDS011;8533;48.426;10.868;2023-02-28T17:00:24;11.57;;;6.60;;
16832;SDS011;8533;48.426;10.868;2023-02-28T17:02:53;11.67;;;6.77;;
16832;SDS011;8533;48.426;10.868;2023-02-28T17:05:21;13.60;;;6.63;;
16832;SDS011;8533;48.426;10.868;2023-02-28T17:07:49;14.57;;;7.47;;
16832;SDS011;8533;48.426;10.868;2023-02-28T17:10:21;14.13;;;6.47;;
16832;SDS011;8533;48.426;10.868;2023-02-28T17:12:50;12.57;;;6.83;;
16832;SDS011;8533;48.426;10.868;2023-02-28T17:15:18;13.10;;;6.53;;
16832;SDS011;8533;48.426;10.868;2023-02-28T17:17:46;12.13;;;7.07;;
16832;SDS011;8533;48.426;10.868;2023-02-28T17:20:16;15.63;;;6.70;;
16832;SDS011;8533;48.426;10.868;2023-02-28T17:25:17;15.10;;;7.20;;
16832;SDS011;8533;48.426;10.868;2023-02-28T17:27:44;13.27;;;7.30;;
16832;SDS011;8533;48.426;10.868;2023-02-28T17:35:13;16.70;;;8.30;;
16832;SDS011;8533;48.426;10.868;2023-02-28T17:37:41;17.23;;;7.87;;
16832;SDS011;8533;48.426;10.868;2023-02-28T17:40:12;17.47;;;8.40;;
16832;SDS011;8533;48.426;10.868;2023-02-28T17:42:42;17.03;;;8.07;;
16832;SDS011;8533;48.426;10.868;2023-02-28T17:45:11;17.00;;;8.53;;
16832;SDS011;8533;48.426;10.868;2023-02-28T17:47:40;17.13;;;8.97;;
16832;SDS011;8533;48.426;10.868;2023-02-28T17:50:14;16.93;;;7.97;;
16832;SDS011;8533;48.426;10.868;2023-02-28T17:52:41;13.23;;;7.03;;
16832;SDS011;8533;48.426;10.868;2023-02-28T17:55:08;12.27;;;6.77;;
16832;SDS011;8533;48.426;10.868;2023-02-28T17:57:36;12.83;;;6.90;;
16832;SDS011;8533;48.426;10.868;2023-02-28T18:00:04;10.07;;;5.37;;
16832;SDS011;8533;48.426;10.868;2023-02-28T18:02:32;17.90;;;7.87;;
16832;SDS011;8533;48.426;10.868;2023-02-28T18:05:00;16.60;;;7.43;;
16832;SDS011;8533;48.426;10.868;2023-02-28T18:07:29;15.33;;;7.17;;
16832;SDS011;8533;48.426;10.868;2023-02-28T18:09:56;16.73;;;8.17;;
16832;SDS011;8533;48.426;10.868;2023-02-28T18:12:24;17.37;;;7.57;;
16832;SDS011;8533;48.426;10.868;2023-02-28T18:14:51;12.77;;;7.70;;
16832;SDS011;8533;48.426;10.868;2023-02-28T18:17:19;13.93;;;7.80;;
16832;SDS011;8533;48.426;10.868;2023-02-28T18:19:46;13.47;;;7.70;;
16832;SDS011;8533;48.426;10.868;2023-02-28T18:22:14;14.87;;;7.70;;
16832;SDS011;8533;48.426;10.868;2023-02-28T18:24:42;13.37;;;6.97;;
16832;SDS011;8533;48.426;10.868;2023-02-28T18:27:09;14.03;;;7.10;;
16832;SDS011;8533;48.426;10.868;2023-02-28T18:29:36;18.80;;;7.53;;
16832;SDS011;8533;48.426;10.868;2023-02-28T18:32:05;14.67;;;7.30;;
16832;SDS011;8533;48.426;10.868;2023-02-28T18:34:32;13.77;;;7.77;;
16832;SDS011;8533;48.426;10.868;2023-02-28T18:37:01;14.93;;;7.60;;
16832;SDS011;8533;48.426;10.868;2023-02-28T18:39:29;15.60;;;7.73;;
16832;SDS011;8533;48.426;10.868;2023-02-28T18:41:57;15.43;;;7.80;;
16832;SDS011;8533;48.426;10.868;2023-02-28T18:44:24;18.57;;;8.83;;